createdAt,value
2023-05-09T00:02:34.638Z,60.24
2023-05-09T00:05:37.925Z,60.75
2023-05-09T00:08:41.821Z,60.57
2023-05-09T00:11:44.951Z,62.08
2023-05-09T00:14:51.803Z,61.58
2023-05-09T00:17:55.109Z,62.29
2023-05-09T00:20:58.399Z,62.69
2023-05-09T00:24:01.594Z,61.96
2023-05-09T00:27:05.149Z,62.20
2023-05-09T00:30:09.526Z,62.01
2023-05-09T00:33:13.063Z,63.40
2023-05-09T00:36:16.306Z,64.57
2023-05-09T00:39:19.495Z,63.95
2023-05-09T00:42:22.757Z,64.11
2023-05-09T00:45:26.239Z,64.52
2023-05-09T00:48:29.550Z,64.20
2023-05-09T00:51:33.598Z,65.11
2023-05-09T00:54:36.980Z,65.43
2023-05-09T00:57:40.195Z,66.40
2023-05-09T01:00:43.694Z,65.83
2023-05-09T01:03:47.692Z,65.30
2023-05-09T01:07:25.237Z,66.12
2023-05-09T01:10:52.111Z,65.12
2023-05-09T01:14:17.994Z,66.50
2023-05-09T01:17:27.955Z,66.50
2023-05-09T01:20:46.155Z,66.31
2023-05-09T01:24:08.621Z,66.07
2023-05-09T01:27:27.086Z,67.42
2023-05-09T01:30:31.500Z,67.52
2023-05-09T01:33:38.890Z,67.44
2023-05-09T01:36:43.615Z,66.72
2023-05-09T01:39:50.654Z,66.57
2023-05-09T01:43:07.226Z,67.49
2023-05-09T01:46:13.062Z,67.05
2023-05-09T01:49:20.428Z,66.72
2023-05-09T01:57:08.403Z,67.00
2023-05-09T02:00:13.978Z,66.83
2023-05-09T02:03:17.416Z,67.00
2023-05-09T02:06:23.585Z,66.76
2023-05-09T02:09:27.481Z,66.55
2023-05-09T02:12:31.099Z,67.98
2023-05-09T02:20:16.915Z,66.75
2023-05-09T02:23:20.952Z,67.86
2023-05-09T02:26:28.714Z,67.44
2023-05-09T02:29:40.805Z,67.48
2023-05-09T02:32:47.301Z,67.95
2023-05-09T02:35:52.127Z,67.42
2023-05-09T02:38:55.722Z,67.69
2023-05-09T02:42:09.601Z,67.49
2023-05-09T02:45:17.513Z,68.87
2023-05-09T02:48:20.694Z,68.29
2023-05-09T02:51:23.953Z,68.48
2023-05-09T02:54:27.154Z,68.55
2023-05-09T02:57:30.461Z,68.97
2023-05-09T03:00:33.706Z,68.91
2023-05-09T03:03:38.291Z,69.40
2023-05-09T03:06:41.913Z,68.47
2023-05-09T03:09:44.982Z,68.75
2023-05-09T03:12:49.249Z,68.67
2023-05-09T03:15:52.340Z,68.70
2023-05-09T03:18:55.520Z,69.16
2023-05-09T03:21:58.815Z,68.22
2023-05-09T03:25:03.442Z,68.47
2023-05-09T03:28:07.996Z,69.81
2023-05-09T03:31:11.675Z,69.60
2023-05-09T03:34:15.471Z,69.81
2023-05-09T03:37:20.524Z,69.72
2023-05-09T03:40:23.848Z,68.81
2023-05-09T03:43:35.764Z,68.75
2023-05-09T03:46:39.234Z,69.12
2023-05-09T03:49:42.915Z,68.73
2023-05-09T03:52:48.644Z,68.79
2023-05-09T03:55:53.596Z,69.03
2023-05-09T03:58:57.260Z,69.64
2023-05-09T04:02:01.760Z,68.82
2023-05-09T04:05:06.376Z,68.85
2023-05-09T04:08:14.126Z,69.21
2023-05-09T04:11:17.944Z,69.04
2023-05-09T04:14:23.736Z,68.64
2023-05-09T04:17:28.267Z,70.03
2023-05-09T04:20:31.966Z,68.35
2023-05-09T04:23:35.324Z,70.42
2023-05-09T04:26:39.306Z,70.18
2023-05-09T04:29:46.466Z,69.21
2023-05-09T04:32:50.075Z,68.66
2023-05-09T04:35:54.683Z,67.64
2023-05-09T04:38:58.300Z,66.87
2023-05-09T04:42:02.866Z,65.62
2023-05-09T04:45:07.594Z,64.60
2023-05-09T04:48:10.837Z,64.50
2023-05-09T04:51:13.896Z,63.51
2023-05-09T04:54:17.043Z,63.17
2023-05-09T04:57:21.108Z,62.04
2023-05-09T05:00:30.292Z,61.75
2023-05-09T05:03:33.935Z,58.16
2023-05-09T05:06:37.481Z,59.11
2023-05-09T05:09:41.240Z,58.12
2023-05-09T05:12:44.506Z,56.63
2023-05-09T05:15:50.221Z,55.33
2023-05-09T05:18:54.311Z,56.39
2023-05-09T05:21:58.599Z,55.05
2023-05-09T05:25:05.744Z,54.08
2023-05-09T05:28:10.222Z,51.58
2023-05-09T05:31:14.863Z,52.70
2023-05-09T05:34:18.466Z,51.66
2023-05-09T05:37:22.849Z,51.77
2023-05-09T05:40:26.409Z,50.50
2023-05-09T05:43:31.563Z,50.31
2023-05-09T05:46:35.245Z,49.52
2023-05-09T05:49:39.203Z,50.07
2023-05-09T05:52:42.375Z,49.61
2023-05-09T05:55:49.416Z,48.27
2023-05-09T05:58:52.684Z,50.15
2023-05-09T06:01:56.932Z,50.14
2023-05-09T06:05:00.845Z,48.64
2023-05-09T06:08:04.438Z,47.80
2023-05-09T06:11:08.760Z,48.26
2023-05-09T06:14:11.850Z,47.51
2023-05-09T06:17:16.599Z,49.35
2023-05-09T06:20:20.799Z,49.14
2023-05-09T06:23:24.043Z,48.23
2023-05-09T06:26:27.528Z,49.97
2023-05-09T06:29:31.328Z,48.61
2023-05-09T06:32:34.290Z,47.99
2023-05-09T06:35:37.217Z,48.47
2023-05-09T06:38:40.566Z,49.91
2023-05-09T06:41:43.566Z,48.42
2023-05-09T06:44:46.757Z,47.82
2023-05-09T06:47:49.835Z,46.82
2023-05-09T06:50:52.790Z,48.43
2023-05-09T06:53:55.997Z,49.13
2023-05-09T07:01:41.309Z,48.11
2023-05-09T07:04:47.326Z,48.00
2023-05-09T07:07:51.183Z,50.09
2023-05-09T07:10:54.507Z,47.92
2023-05-09T07:13:57.925Z,46.51
2023-05-09T07:17:18.001Z,46.06
2023-05-09T07:20:25.981Z,46.70
2023-05-09T07:23:29.268Z,48.21
2023-05-09T07:26:32.464Z,47.15
2023-05-09T07:34:20.001Z,46.98
2023-05-09T07:37:23.164Z,47.31
2023-05-09T07:40:26.613Z,47.48
2023-05-09T07:43:29.588Z,46.76
2023-05-09T07:46:32.822Z,48.10
2023-05-09T07:49:35.946Z,48.34
2023-05-09T07:52:39.059Z,49.06
2023-05-09T07:55:42.136Z,47.21
2023-05-09T07:58:48.115Z,47.66
2023-05-09T08:01:51.684Z,47.34
2023-05-09T08:04:55.041Z,48.29
2023-05-09T08:07:58.786Z,45.06
2023-05-09T08:11:01.849Z,44.80
2023-05-09T08:14:04.830Z,45.27
2023-05-09T08:17:07.959Z,47.87
2023-05-09T08:20:12.077Z,48.30
2023-05-09T08:23:15.045Z,47.41
2023-05-09T08:26:17.967Z,45.78
2023-05-09T08:29:20.856Z,45.74
2023-05-09T08:32:23.890Z,45.77
2023-05-09T08:35:26.840Z,46.60
2023-05-09T08:38:30.348Z,45.62
2023-05-09T08:41:36.304Z,45.49
2023-05-09T08:44:39.759Z,45.32
2023-05-09T08:47:43.248Z,43.13
2023-05-09T08:50:46.645Z,47.81
2023-05-09T08:53:50.851Z,45.12
2023-05-09T08:56:55.026Z,46.48
2023-05-09T08:59:59.613Z,43.75
2023-05-09T09:03:04.098Z,45.12
2023-05-09T09:06:09.331Z,45.08
2023-05-09T09:18:39.901Z,45.48
2023-05-09T09:21:46.903Z,45.94
2023-05-09T09:24:51.131Z,46.45
2023-05-09T09:27:56.323Z,44.01
2023-05-09T09:31:01.584Z,45.21
2023-05-09T09:34:05.010Z,46.58
2023-05-09T09:37:09.034Z,44.31
2023-05-09T09:40:14.563Z,44.19
2023-05-09T09:43:18.071Z,42.67
2023-05-09T09:51:11.572Z,44.70
2023-05-09T09:54:15.147Z,44.16
2023-05-09T09:57:38.487Z,42.95
2023-05-09T10:00:41.622Z,42.70
2023-05-09T10:03:46.592Z,41.52
2023-05-09T10:06:58.298Z,41.65
2023-05-09T10:10:06.174Z,43.13
2023-05-09T10:13:12.107Z,43.12
2023-05-09T10:16:16.162Z,41.25
2023-05-09T10:19:23.610Z,43.66
2023-05-09T10:22:27.430Z,43.09
2023-05-09T10:25:43.163Z,41.91
2023-05-09T10:28:49.757Z,41.34
2023-05-09T10:31:58.852Z,41.83
2023-05-09T10:35:06.350Z,40.96
2023-05-09T10:38:12.586Z,40.89
2023-05-09T10:41:18.818Z,41.60
2023-05-09T10:44:25.256Z,40.40
2023-05-09T10:47:32.137Z,39.54
2023-05-09T10:50:37.736Z,38.71
2023-05-09T10:53:46.547Z,34.72
2023-05-09T10:56:49.483Z,39.07
2023-05-09T10:59:52.679Z,37.57
2023-05-09T11:03:08.306Z,36.25
2023-05-09T11:06:52.022Z,36.44
2023-05-09T11:14:45.161Z,35.55
2023-05-09T11:18:05.671Z,38.03
2023-05-09T11:21:11.839Z,35.80
2023-05-09T11:24:19.517Z,34.88
2023-05-09T11:27:27.195Z,35.49
2023-05-09T11:30:42.133Z,35.79
2023-05-09T11:33:49.257Z,35.36
2023-05-09T11:37:11.074Z,35.19
2023-05-09T11:40:17.559Z,34.31
2023-05-09T11:43:20.879Z,35.97
2023-05-09T11:46:26.911Z,34.77
2023-05-09T11:49:30.380Z,35.30
2023-05-09T11:52:33.749Z,33.78
2023-05-09T11:55:38.442Z,34.73
2023-05-09T11:58:42.359Z,35.62
2023-05-09T12:01:45.699Z,36.65
2023-05-09T12:04:52.544Z,34.94
2023-05-09T12:07:56.630Z,37.20
2023-05-09T12:11:10.365Z,38.44
2023-05-09T12:14:32.836Z,36.97
2023-05-09T12:17:36.834Z,39.30
2023-05-09T12:20:57.969Z,39.02
2023-05-09T12:24:01.504Z,38.20
2023-05-09T12:27:05.694Z,36.39
2023-05-09T12:30:14.535Z,37.24
2023-05-09T12:33:18.336Z,38.04
2023-05-09T12:36:22.219Z,37.28
2023-05-09T12:39:27.027Z,35.48
2023-05-09T12:42:32.008Z,33.61
2023-05-09T12:45:35.825Z,36.45
2023-05-09T12:48:39.623Z,34.69
2023-05-09T12:51:51.888Z,37.24
2023-05-09T12:54:55.266Z,37.78
2023-05-09T12:58:03.464Z,35.69
2023-05-09T13:01:07.526Z,36.07
2023-05-09T13:04:12.731Z,36.83
2023-05-09T13:07:16.491Z,33.12
2023-05-09T13:10:24.194Z,35.22
2023-05-09T13:13:29.719Z,32.41
2023-05-09T13:16:33.229Z,34.76
2023-05-09T13:19:39.529Z,34.05
2023-05-09T13:22:44.916Z,33.13
2023-05-09T13:25:48.347Z,31.92
2023-05-09T13:28:51.439Z,31.65
2023-05-09T13:31:54.641Z,35.11
2023-05-09T13:34:58.129Z,35.83
2023-05-09T13:38:01.428Z,34.79
2023-05-09T13:41:04.993Z,34.22
2023-05-09T13:44:07.965Z,34.29
2023-05-09T13:47:13.555Z,35.23
2023-05-09T13:50:17.097Z,34.67
2023-05-09T13:53:20.695Z,31.44
2023-05-09T13:56:25.457Z,34.26
2023-05-09T13:59:29.132Z,32.90
2023-05-09T14:02:32.349Z,34.73
2023-05-09T14:05:35.579Z,35.05
2023-05-09T14:08:39.736Z,36.98
2023-05-09T14:11:43.119Z,38.14
2023-05-09T14:14:46.199Z,34.92
2023-05-09T14:17:49.270Z,36.52
2023-05-09T14:20:55.068Z,36.61
2023-05-09T14:23:58.336Z,37.47
2023-05-09T14:27:01.818Z,37.60
2023-05-09T14:30:05.416Z,34.64
2023-05-09T14:33:09.096Z,35.37
2023-05-09T14:36:12.666Z,37.73
2023-05-09T14:39:16.193Z,38.26
2023-05-09T14:42:19.970Z,37.86
2023-05-09T14:45:23.197Z,36.89
2023-05-09T14:48:28.642Z,37.87
2023-05-09T14:51:33.435Z,36.86
2023-05-09T14:54:36.608Z,37.04
2023-05-09T14:57:40.364Z,37.66
2023-05-09T15:00:44.720Z,36.09
2023-05-09T15:03:48.180Z,36.77
2023-05-09T15:06:51.239Z,35.40
2023-05-09T15:09:54.650Z,35.24
2023-05-09T15:12:58.425Z,36.38
2023-05-09T15:16:01.431Z,37.57
2023-05-09T15:19:05.791Z,37.50
2023-05-09T15:22:08.939Z,33.53
2023-05-09T15:25:14.702Z,36.19
2023-05-09T15:28:17.677Z,36.94
2023-05-09T15:31:21.998Z,35.05
2023-05-09T15:34:25.427Z,33.92
2023-05-09T15:37:28.395Z,34.01
2023-05-09T15:40:34.303Z,35.55
2023-05-09T15:43:37.520Z,36.08
2023-05-09T15:46:41.132Z,37.17
2023-05-09T15:49:44.464Z,38.59
2023-05-09T15:52:47.479Z,37.87
2023-05-09T15:55:50.518Z,38.39
2023-05-09T15:58:53.467Z,41.43
2023-05-09T16:01:56.902Z,40.55
2023-05-09T16:05:00.130Z,40.48
2023-05-09T16:08:03.049Z,41.06
2023-05-09T16:11:06.089Z,43.46
2023-05-09T16:14:11.800Z,44.20
2023-05-09T16:17:15.021Z,42.84
2023-05-09T16:20:18.604Z,40.32
2023-05-09T16:23:23.692Z,40.88
2023-05-09T16:26:27.065Z,40.33
2023-05-09T16:29:31.099Z,42.54
2023-05-09T16:32:34.599Z,41.73
2023-05-09T16:35:37.676Z,43.74
2023-05-09T16:38:41.040Z,43.46
2023-05-09T16:41:44.135Z,45.76
2023-05-09T16:44:47.909Z,45.28
2023-05-09T16:47:51.325Z,45.74
2023-05-09T16:51:00.597Z,45.51
2023-05-09T16:54:03.822Z,46.27
2023-05-09T16:57:07.294Z,46.03
2023-05-09T17:00:11.174Z,47.49
2023-05-09T17:03:14.635Z,47.46
2023-05-09T17:06:18.071Z,48.54
2023-05-09T17:09:21.090Z,49.59
2023-05-09T17:12:24.736Z,49.27
2023-05-09T17:15:28.779Z,49.39
2023-05-09T17:18:37.506Z,49.12
2023-05-09T17:21:41.827Z,48.30
2023-05-09T17:24:44.823Z,48.31
2023-05-09T17:27:49.391Z,47.53
2023-05-09T17:30:52.662Z,47.00
2023-05-09T17:33:56.060Z,47.54
2023-05-09T17:37:02.050Z,48.56
2023-05-09T17:40:06.441Z,46.37
2023-05-09T17:43:09.469Z,47.91
2023-05-09T17:46:14.975Z,48.56
2023-05-09T17:49:18.656Z,48.47
2023-05-09T17:52:22.353Z,48.58
2023-05-09T17:55:25.713Z,48.68
2023-05-09T17:58:30.035Z,48.88
2023-05-09T18:01:33.143Z,48.59
2023-05-09T18:04:37.105Z,50.90
2023-05-09T18:07:40.838Z,51.67
2023-05-09T18:10:44.297Z,53.08
2023-05-09T18:13:47.505Z,52.59
2023-05-09T18:16:51.183Z,53.27
2023-05-09T18:19:54.365Z,54.22
2023-05-09T18:22:58.057Z,55.25
2023-05-09T18:26:01.814Z,55.15
2023-05-09T18:29:04.825Z,55.59
2023-05-09T18:32:08.041Z,55.29
2023-05-09T18:35:11.305Z,55.73
2023-05-09T18:38:16.960Z,56.05
2023-05-09T18:41:20.032Z,56.59
2023-05-09T18:44:23.246Z,55.96
2023-05-09T18:47:29.253Z,56.38
2023-05-09T18:50:33.853Z,55.74
2023-05-09T18:53:38.046Z,55.59
2023-05-09T18:56:42.522Z,56.74
2023-05-09T18:59:46.519Z,56.38
2023-05-09T19:02:52.585Z,55.96
2023-05-09T19:05:56.150Z,56.74
2023-05-09T19:09:04.311Z,57.15
2023-05-09T19:12:09.216Z,57.10
2023-05-09T19:15:13.699Z,57.01
2023-05-09T19:18:18.027Z,56.33
2023-05-09T19:21:21.890Z,56.59
2023-05-09T19:24:25.320Z,58.08
2023-05-09T19:27:28.855Z,57.25
2023-05-09T19:30:32.409Z,57.40
2023-05-09T19:33:36.049Z,56.80
2023-05-09T19:36:39.906Z,57.26
2023-05-09T19:39:43.253Z,58.12
2023-05-09T19:42:46.787Z,58.08
2023-05-09T19:45:53.532Z,57.82
2023-05-09T19:48:57.493Z,57.81
2023-05-09T19:52:01.285Z,58.47
2023-05-09T19:55:06.145Z,58.25
2023-05-09T19:58:09.648Z,57.43
2023-05-09T20:01:17.563Z,58.75
2023-05-09T20:04:22.274Z,59.52
2023-05-09T20:07:26.307Z,58.72
2023-05-09T20:10:31.045Z,58.16
2023-05-09T20:13:34.174Z,58.29
2023-05-09T20:16:38.545Z,58.08
2023-05-09T20:19:44.454Z,58.68
2023-05-09T20:22:47.997Z,57.88
2023-05-09T20:25:51.005Z,57.79
2023-05-09T20:29:01.677Z,58.77
2023-05-09T20:32:04.919Z,58.76
2023-05-09T20:35:08.383Z,57.87
2023-05-09T20:38:12.299Z,57.37
2023-05-09T20:41:15.894Z,58.64
2023-05-09T20:44:19.350Z,59.63
2023-05-09T20:47:22.688Z,58.77
2023-05-09T20:50:26.173Z,59.07
2023-05-09T20:53:31.962Z,58.38
2023-05-09T20:56:35.765Z,59.41
2023-05-09T20:59:39.189Z,59.77
2023-05-09T21:02:42.350Z,59.87
2023-05-09T21:05:46.570Z,60.10
2023-05-09T21:08:49.870Z,60.50
2023-05-09T21:11:52.831Z,60.38
2023-05-09T21:14:56.614Z,60.40
2023-05-09T21:17:59.785Z,61.17
2023-05-09T21:21:05.510Z,62.22
2023-05-09T21:24:09.767Z,61.74
2023-05-09T21:27:12.890Z,62.13
2023-05-09T21:30:20.693Z,61.49
2023-05-09T21:33:23.692Z,61.60
2023-05-09T21:36:27.059Z,62.11
2023-05-09T21:39:31.306Z,62.56
2023-05-09T21:42:37.425Z,63.26
2023-05-09T21:45:40.649Z,64.76
2023-05-09T21:48:43.675Z,63.69
2023-05-09T21:51:46.834Z,63.88
2023-05-09T21:54:50.089Z,64.78
2023-05-09T21:57:53.243Z,64.67
2023-05-09T22:00:56.363Z,64.66
2023-05-09T22:03:59.400Z,64.60
2023-05-09T22:07:02.537Z,64.22
2023-05-09T22:10:06.323Z,64.14
2023-05-09T22:13:09.695Z,65.59
2023-05-09T22:16:13.499Z,65.60
2023-05-09T22:19:17.593Z,65.26
2023-05-09T22:22:23.584Z,65.87
2023-05-09T22:25:27.199Z,66.68
2023-05-09T22:28:30.635Z,66.88
2023-05-09T22:31:35.997Z,67.04
2023-05-09T22:34:39.442Z,67.80
2023-05-09T22:37:42.469Z,67.78
2023-05-09T22:40:45.468Z,68.89
2023-05-09T22:43:48.532Z,69.10
2023-05-09T22:46:51.544Z,68.92
2023-05-09T22:49:54.890Z,68.87
2023-05-09T22:52:58.042Z,68.11
2023-05-09T22:56:01.209Z,68.63
2023-05-09T22:59:04.720Z,68.65
2023-05-09T23:02:07.789Z,69.16
2023-05-09T23:05:29.758Z,69.83
2023-05-09T23:08:33.980Z,68.94
2023-05-09T23:11:37.959Z,69.33
2023-05-09T23:14:41.071Z,70.09
2023-05-09T23:17:44.102Z,70.46
2023-05-09T23:20:47.440Z,70.14
2023-05-09T23:23:53.263Z,70.72
2023-05-09T23:26:56.488Z,71.02
2023-05-09T23:29:59.925Z,71.31
2023-05-09T23:33:05.008Z,71.34
2023-05-09T23:36:09.393Z,72.39
2023-05-09T23:39:12.638Z,72.62
2023-05-09T23:42:16.178Z,71.93
2023-05-09T23:45:19.352Z,72.03
2023-05-09T23:48:23.393Z,71.13
2023-05-09T23:51:26.588Z,70.69
2023-05-09T23:54:30.112Z,70.75
2023-05-09T23:57:33.388Z,71.21
